createdAt,value
2023-01-11T00:00:44.936Z,100752.00
2023-01-11T00:03:11.771Z,100737.81
2023-01-11T00:05:42.683Z,100739.50
2023-01-11T00:08:09.673Z,100733.25
2023-01-11T00:10:36.499Z,100733.94
2023-01-11T00:13:04.878Z,100728.72
2023-01-11T00:15:31.612Z,100732.06
2023-01-11T00:17:58.108Z,100735.38
2023-01-11T00:20:25.080Z,100719.56
2023-01-11T00:22:51.504Z,100728.28
2023-01-11T00:25:18.038Z,100715.00
2023-01-11T00:27:44.385Z,100709.59
2023-01-11T00:30:11.461Z,100719.25
2023-01-11T00:32:37.864Z,100722.44
2023-01-11T00:35:04.721Z,100717.13
2023-01-11T00:37:31.085Z,100715.19
2023-01-11T00:39:57.452Z,100717.81
2023-01-11T00:42:42.296Z,100718.56
2023-01-11T00:45:27.556Z,100709.78
2023-01-11T00:48:05.862Z,100713.94
2023-01-11T00:50:35.012Z,100712.03
2023-01-11T00:53:01.749Z,100702.44
2023-01-11T00:55:28.326Z,100684.16
2023-01-11T00:57:55.049Z,100700.63
2023-01-11T01:00:22.157Z,100694.38
2023-01-11T01:02:49.228Z,100693.34
2023-01-11T01:05:16.612Z,100687.19
2023-01-11T01:07:43.448Z,100686.25
2023-01-11T01:10:11.735Z,100705.28
2023-01-11T01:12:56.556Z,100691.22
2023-01-11T01:15:23.069Z,100697.34
2023-01-11T01:17:52.063Z,100704.28
2023-01-11T01:20:18.394Z,100703.41
2023-01-11T01:22:44.717Z,100703.31
2023-01-11T01:25:11.080Z,100704.09
2023-01-11T01:27:37.493Z,100696.22
2023-01-11T01:30:05.919Z,100707.31
2023-01-11T01:32:32.282Z,100705.34
2023-01-11T01:34:58.592Z,100706.19
2023-01-11T01:37:24.977Z,100706.03
2023-01-11T01:39:51.284Z,100699.00
2023-01-11T01:42:19.868Z,100706.63
2023-01-11T01:45:00.089Z,100703.06
2023-01-11T01:47:32.400Z,100703.81
2023-01-11T01:50:02.524Z,100701.28
2023-01-11T01:52:31.214Z,100705.69
2023-01-11T01:55:03.597Z,100703.81
2023-01-11T01:57:34.174Z,100702.97
2023-01-11T02:00:04.552Z,100694.19
2023-01-11T02:02:31.058Z,100701.19
2023-01-11T02:04:58.546Z,100697.44
2023-01-11T02:07:32.761Z,100708.69
2023-01-11T02:10:04.549Z,100710.41
2023-01-11T02:12:34.796Z,100701.59
2023-01-11T02:15:02.332Z,100712.75
2023-01-11T02:17:28.763Z,100706.66
2023-01-11T02:20:31.373Z,100711.72
2023-01-11T02:23:09.320Z,100709.88
2023-01-11T02:25:54.035Z,100716.72
2023-01-11T02:28:30.053Z,100713.25
2023-01-11T02:31:28.511Z,100712.28
2023-01-11T02:34:15.044Z,100715.78
2023-01-11T02:37:00.328Z,100706.88
2023-01-11T02:39:41.931Z,100702.47
2023-01-11T02:42:30.621Z,100705.78
2023-01-11T02:45:12.886Z,100704.84
2023-01-11T02:47:45.083Z,100712.72
2023-01-11T02:50:20.654Z,100713.44
2023-01-11T02:53:20.558Z,100710.66
2023-01-11T02:55:51.748Z,100713.09
2023-01-11T02:58:21.342Z,100719.13
2023-01-11T03:00:48.706Z,100728.59
2023-01-11T03:03:21.985Z,100730.28
2023-01-11T03:06:06.786Z,100741.44
2023-01-11T03:09:04.160Z,100737.13
2023-01-11T03:12:04.521Z,100727.66
2023-01-11T03:14:51.477Z,100738.06
2023-01-11T03:17:17.781Z,100733.66
2023-01-11T03:19:52.369Z,100746.50
2023-01-11T03:22:33.565Z,100749.97
2023-01-11T03:25:16.349Z,100744.56
2023-01-11T03:28:02.317Z,100749.72
2023-01-11T03:30:51.767Z,100747.00
2023-01-11T03:33:30.140Z,100733.97
2023-01-11T03:36:04.962Z,100743.63
2023-01-11T03:38:41.245Z,100747.00
2023-01-11T03:41:13.574Z,100744.25
2023-01-11T03:43:44.047Z,100748.69
2023-01-11T03:46:14.660Z,100741.56
2023-01-11T03:48:57.787Z,100737.34
2023-01-11T03:51:30.520Z,100738.19
2023-01-11T03:54:00.884Z,100743.25
2023-01-11T03:56:35.963Z,100749.34
2023-01-11T03:59:02.644Z,100752.81
2023-01-11T04:01:29.615Z,100746.53
2023-01-11T04:03:56.020Z,100751.88
2023-01-11T04:06:24.067Z,100756.19
2023-01-11T04:08:50.555Z,100756.19
2023-01-11T04:11:16.993Z,100749.16
2023-01-11T04:13:43.324Z,100761.56
2023-01-11T04:16:09.723Z,100772.06
2023-01-11T04:18:36.097Z,100789.47
2023-01-11T04:21:02.455Z,100769.25
2023-01-11T04:23:28.787Z,100777.94
2023-01-11T04:25:55.138Z,100778.81
2023-01-11T04:28:21.697Z,100787.41
2023-01-11T04:30:48.025Z,100785.75
2023-01-11T04:33:14.462Z,100785.75
2023-01-11T04:35:41.213Z,100792.66
2023-01-11T04:38:07.569Z,100790.16
2023-01-11T04:40:33.900Z,100789.31
2023-01-11T04:43:02.228Z,100790.25
2023-01-11T04:45:29.727Z,100788.38
2023-01-11T04:47:57.401Z,100798.69
2023-01-11T04:50:24.763Z,100794.47
2023-01-11T04:52:51.705Z,100801.31
2023-01-11T04:55:18.619Z,100800.28
2023-01-11T04:57:46.143Z,100803.84
2023-01-11T05:00:13.603Z,100808.94
2023-01-11T05:02:40.415Z,100810.78
2023-01-11T05:05:07.873Z,100803.03
2023-01-11T05:07:34.335Z,100809.09
2023-01-11T05:10:00.763Z,100809.09
2023-01-11T05:12:27.167Z,100809.97
2023-01-11T05:14:53.564Z,100811.72
2023-01-11T05:17:19.878Z,100809.97
2023-01-11T05:19:46.245Z,100815.22
2023-01-11T05:22:12.629Z,100822.31
2023-01-11T05:24:39.016Z,100827.75
2023-01-11T05:27:06.169Z,100828.59
2023-01-11T05:29:32.604Z,100839.09
2023-01-11T05:31:59.012Z,100828.69
2023-01-11T05:34:25.576Z,100838.44
2023-01-11T05:36:51.992Z,100843.69
2023-01-11T05:39:18.439Z,100835.91
2023-01-11T05:41:44.895Z,100845.56
2023-01-11T05:44:31.510Z,100850.88
2023-01-11T05:46:58.239Z,100849.13
2023-01-11T05:49:24.697Z,100843.09
2023-01-11T05:51:51.101Z,100851.84
2023-01-11T05:54:17.468Z,100863.38
2023-01-11T05:56:43.894Z,100861.66
2023-01-11T05:59:10.890Z,100860.81
2023-01-11T06:01:37.800Z,100864.38
2023-01-11T06:04:04.647Z,100867.06
2023-01-11T06:06:32.412Z,100866.25
2023-01-11T06:08:58.862Z,100863.72
2023-01-11T06:11:25.223Z,100865.56
2023-01-11T06:13:51.644Z,100868.28
2023-01-11T06:16:20.222Z,100872.75
2023-01-11T06:18:49.596Z,100885.03
2023-01-11T06:21:17.061Z,100882.59
2023-01-11T06:23:46.497Z,100882.66
2023-01-11T06:26:18.807Z,100892.44
2023-01-11T06:28:45.288Z,100891.56
2023-01-11T06:31:12.159Z,100900.44
2023-01-11T06:33:39.014Z,100910.13
2023-01-11T06:36:08.258Z,100899.78
2023-01-11T06:38:34.955Z,100905.97
2023-01-11T06:41:02.821Z,100910.44
2023-01-11T06:43:30.831Z,100910.44
2023-01-11T06:45:57.568Z,100923.75
2023-01-11T06:48:25.671Z,100923.06
2023-01-11T06:50:54.372Z,100926.63
2023-01-11T06:53:21.814Z,100924.06
2023-01-11T06:55:53.272Z,100938.03
2023-01-11T06:58:20.543Z,100945.16
2023-01-11T07:00:47.125Z,100936.50
2023-01-11T07:03:13.616Z,100936.59
2023-01-11T07:05:42.236Z,100937.34
2023-01-11T07:08:08.571Z,100952.34
2023-01-11T07:10:34.926Z,100955.88
2023-01-11T07:13:01.428Z,100948.19
2023-01-11T07:15:28.159Z,100954.38
2023-01-11T07:17:56.059Z,100961.38
2023-01-11T07:20:24.271Z,100975.44
2023-01-11T07:22:51.489Z,100970.25
2023-01-11T07:25:18.561Z,100985.25
2023-01-11T07:27:45.003Z,100988.88
2023-01-11T07:30:11.952Z,101002.00
2023-01-11T07:32:38.502Z,101002.22
2023-01-11T07:35:05.404Z,101014.63
2023-01-11T07:37:35.141Z,101014.63
2023-01-11T07:40:01.562Z,101013.81
2023-01-11T07:42:46.482Z,101014.91
2023-01-11T07:45:13.008Z,101017.56
2023-01-11T07:47:39.417Z,101015.91
2023-01-11T07:50:06.409Z,101018.56
2023-01-11T07:52:32.834Z,101020.38
2023-01-11T07:55:02.436Z,101023.06
2023-01-11T07:57:33.014Z,101027.53
2023-01-11T07:59:59.404Z,101029.47
2023-01-11T08:02:25.911Z,101034.72
2023-01-11T08:04:52.405Z,101050.44
2023-01-11T08:07:18.756Z,101053.13
2023-01-11T08:09:45.080Z,101055.75
2023-01-11T08:12:29.930Z,101061.94
2023-01-11T08:14:56.264Z,101067.25
2023-01-11T08:17:22.676Z,101069.19
2023-01-11T08:19:49.042Z,101073.50
2023-01-11T08:22:15.389Z,101071.03
2023-01-11T08:24:41.815Z,101072.88
2023-01-11T08:27:08.245Z,101074.75
2023-01-11T08:29:34.656Z,101083.53
2023-01-11T08:32:01.149Z,101088.06
2023-01-11T08:34:28.965Z,101096.03
2023-01-11T08:37:01.849Z,101110.03
2023-01-11T08:39:30.912Z,101108.34
2023-01-11T08:41:58.737Z,101109.25
2023-01-11T08:44:33.770Z,101117.19
2023-01-11T08:47:00.949Z,101119.91
2023-01-11T08:49:27.394Z,101121.72
2023-01-11T08:51:53.782Z,101138.38
2023-01-11T08:54:20.225Z,101140.25
2023-01-11T08:56:46.705Z,101132.47
2023-01-11T08:59:13.197Z,101141.25
2023-01-11T09:01:39.866Z,101152.72
2023-01-11T09:04:19.243Z,101144.94
2023-01-11T09:06:50.268Z,101145.78
2023-01-11T09:09:17.016Z,101146.84
2023-01-11T09:11:56.576Z,101143.44
2023-01-11T09:14:27.748Z,101153.16
2023-01-11T09:16:54.902Z,101144.50
2023-01-11T09:19:22.185Z,101153.28
2023-01-11T09:21:48.625Z,101148.97
2023-01-11T09:24:15.172Z,101152.56
2023-01-11T09:26:43.420Z,101153.56
2023-01-11T09:29:11.146Z,101158.75
2023-01-11T09:31:38.104Z,101162.22
2023-01-11T09:34:05.408Z,101154.28
2023-01-11T09:36:33.204Z,101159.44
2023-01-11T09:39:01.762Z,101165.47
2023-01-11T09:41:39.967Z,101155.78
2023-01-11T09:44:16.408Z,101163.47
2023-01-11T09:46:48.322Z,101171.25
2023-01-11T09:49:25.025Z,101174.59
2023-01-11T09:51:53.475Z,101174.53
2023-01-11T09:54:27.189Z,101167.44
2023-01-11T09:57:13.954Z,101170.06
2023-01-11T09:59:52.805Z,101170.00
2023-01-11T10:02:41.519Z,101176.06
2023-01-11T10:05:25.926Z,101174.31
2023-01-11T10:18:30.454Z,101190.78
2023-01-11T10:18:37.596Z,101189.13
2023-01-11T10:21:27.172Z,101190.75
2023-01-11T10:24:03.036Z,101186.22
2023-01-11T10:26:39.867Z,101184.28
2023-01-11T10:29:20.753Z,101183.16
2023-01-11T10:32:02.224Z,101189.03
2023-01-11T10:34:51.054Z,101194.03
2023-01-11T10:37:25.659Z,101196.59
2023-01-11T10:40:18.349Z,101202.50
2023-01-11T10:43:12.932Z,101209.38
2023-01-11T10:45:47.149Z,101208.34
2023-01-11T10:48:34.790Z,101203.09
2023-01-11T10:51:12.932Z,101208.34
2023-01-11T10:53:50.486Z,101197.84
2023-01-11T10:56:22.794Z,101208.34
2023-01-11T10:59:16.983Z,101215.25
2023-01-11T11:02:15.910Z,101206.63
2023-01-11T11:05:05.268Z,101208.34
2023-01-11T11:07:43.028Z,101208.34
2023-01-11T11:10:25.521Z,101219.66
2023-01-11T11:12:59.403Z,101210.00
2023-01-11T11:16:00.622Z,101214.34
2023-01-11T11:18:27.390Z,101215.97
2023-01-11T11:20:53.789Z,101210.63
2023-01-11T11:23:24.385Z,101198.41
2023-01-11T11:25:59.753Z,101207.09
2023-01-11T11:28:30.154Z,101198.41
2023-01-11T11:31:05.804Z,101187.91
2023-01-11T11:33:40.113Z,101195.78
2023-01-11T11:36:12.031Z,101204.47
2023-01-11T11:39:00.672Z,101195.69
2023-01-11T11:41:27.104Z,101195.69
2023-01-11T11:44:08.580Z,101203.56
2023-01-11T11:46:34.951Z,101195.69
2023-01-11T11:49:20.539Z,101193.84
2023-01-11T11:51:47.903Z,101197.22
2023-01-11T11:54:21.862Z,101197.22
2023-01-11T11:56:49.144Z,101197.22
2023-01-11T11:59:19.780Z,101201.56
2023-01-11T12:01:49.737Z,101214.69
2023-01-11T12:04:16.154Z,101212.97
2023-01-11T12:06:43.552Z,101214.75
2023-01-11T12:09:29.934Z,101221.78
2023-01-11T12:11:56.839Z,101222.63
2023-01-11T12:14:31.641Z,101216.53
2023-01-11T12:16:58.866Z,101223.47
2023-01-11T12:19:41.231Z,101227.03
2023-01-11T12:22:11.278Z,101232.28
2023-01-11T12:24:37.615Z,101233.94
2023-01-11T12:27:16.004Z,101226.88
2023-01-11T12:29:51.294Z,101218.91
2023-01-11T12:32:37.857Z,101226.56
2023-01-11T12:35:22.697Z,101218.47
2023-01-11T12:38:02.105Z,101215.78
2023-01-11T12:40:37.888Z,101201.81
2023-01-11T12:43:27.529Z,101206.13
2023-01-11T12:46:26.263Z,101219.34
2023-01-11T12:49:02.204Z,101215.00
2023-01-11T12:52:00.826Z,101225.56
2023-01-11T12:54:39.208Z,101229.19
2023-01-11T12:57:27.014Z,101238.91
2023-01-11T13:00:14.875Z,101234.66
2023-01-11T13:03:19.839Z,101239.06
2023-01-11T13:06:12.278Z,101240.91
2023-01-11T13:09:08.501Z,101233.81
2023-01-11T13:11:45.758Z,101235.38
2023-01-11T13:14:27.428Z,101242.16
2023-01-11T13:17:15.504Z,101239.53
2023-01-11T13:20:00.785Z,101238.00
2023-01-11T13:22:37.424Z,101234.56
2023-01-11T13:25:15.943Z,101224.03
2023-01-11T13:27:43.550Z,101229.34
2023-01-11T13:30:12.732Z,101224.09
2023-01-11T13:32:42.879Z,101208.34
2023-01-11T13:35:19.055Z,101211.84
2023-01-11T13:37:49.047Z,101212.53
2023-01-11T13:40:18.543Z,101204.69
2023-01-11T13:42:57.412Z,101205.44
2023-01-11T13:45:38.869Z,101193.94
2023-01-11T13:48:18.276Z,101198.19
2023-01-11T13:50:54.298Z,101188.38
2023-01-11T13:53:38.972Z,101190.94
2023-01-11T13:56:13.453Z,101187.38
2023-01-11T13:58:55.958Z,101190.78
2023-01-11T14:01:34.394Z,101195.16
2023-01-11T14:04:08.269Z,101194.34
2023-01-11T14:06:53.158Z,101196.88
2023-01-11T14:09:53.913Z,101200.41
2023-01-11T14:12:57.121Z,101206.53
2023-01-11T14:15:38.471Z,101203.91
2023-01-11T14:18:09.612Z,101202.22
2023-01-11T14:21:02.141Z,101210.22
2023-01-11T14:23:50.851Z,101210.38
2023-01-11T14:26:52.712Z,101215.78
2023-01-11T14:29:46.684Z,101206.28
2023-01-11T14:32:15.956Z,101219.47
2023-01-11T14:34:52.122Z,101211.69
2023-01-11T14:37:54.932Z,101211.69
2023-01-11T14:40:38.973Z,101226.66
2023-01-11T14:43:33.586Z,101197.81
2023-01-11T14:46:21.302Z,101193.47
2023-01-11T14:49:12.533Z,101186.59
2023-01-11T14:51:44.930Z,101196.31
2023-01-11T14:54:21.365Z,101199.84
2023-01-11T14:56:51.601Z,101202.56
2023-01-11T14:59:25.052Z,101199.09
2023-01-11T15:02:16.220Z,101213.25
2023-01-11T15:04:51.451Z,101211.59
2023-01-11T15:07:33.432Z,101207.34
2023-01-11T15:10:04.196Z,101208.25
2023-01-11T15:12:38.124Z,101199.59
2023-01-11T15:15:06.690Z,101214.59
2023-01-11T15:17:52.216Z,101204.13
2023-01-11T15:20:20.780Z,101205.09
2023-01-11T15:22:56.080Z,101210.38
2023-01-11T15:25:28.813Z,101218.25
2023-01-11T15:27:55.863Z,101210.47
2023-01-11T15:30:31.528Z,101215.72
2023-01-11T15:33:18.000Z,101210.47
2023-01-11T15:35:56.462Z,101220.94
2023-01-11T15:38:49.069Z,101215.72
2023-01-11T15:42:05.826Z,101215.88
2023-01-11T15:45:06.169Z,101214.16
2023-01-11T15:48:00.525Z,101232.59
2023-01-11T15:50:39.011Z,101236.13
2023-01-11T15:53:20.640Z,101240.53
2023-01-11T15:56:10.992Z,101233.66
2023-01-11T15:58:51.594Z,101240.66
2023-01-11T16:01:28.778Z,101245.91
2023-01-11T16:04:05.175Z,101251.22
2023-01-11T16:06:46.303Z,101251.31
2023-01-11T16:09:33.106Z,101247.78
2023-01-11T16:12:01.911Z,101243.44
2023-01-11T16:14:56.283Z,101241.53
2023-01-11T16:17:24.320Z,101241.47
2023-01-11T16:19:56.630Z,101237.97
2023-01-11T16:22:25.799Z,101237.13
2023-01-11T16:24:56.869Z,101254.69
2023-01-11T16:27:28.847Z,101228.63
2023-01-11T16:29:56.704Z,101233.09
2023-01-11T16:32:27.066Z,101239.28
2023-01-11T16:34:55.631Z,101235.88
2023-01-11T16:37:38.996Z,101230.63
2023-01-11T16:40:14.409Z,101230.63
2023-01-11T16:43:06.107Z,101237.69
2023-01-11T16:45:48.183Z,101224.66
2023-01-11T16:48:19.924Z,101227.38
2023-01-11T16:51:05.535Z,101237.06
2023-01-11T16:53:33.839Z,101239.69
2023-01-11T16:56:07.488Z,101242.25
2023-01-11T16:58:40.249Z,101243.16
2023-01-11T17:01:06.731Z,101236.22
2023-01-11T17:03:42.048Z,101235.31
2023-01-11T17:06:10.325Z,101235.31
2023-01-11T17:08:38.576Z,101227.50
2023-01-11T17:11:19.524Z,101230.06
2023-01-11T17:14:07.943Z,101219.56
2023-01-11T17:16:41.411Z,101224.03
2023-01-11T17:19:23.237Z,101224.88
2023-01-11T17:22:14.318Z,101224.88
2023-01-11T17:24:50.317Z,101225.66
2023-01-11T17:27:28.119Z,101226.56
2023-01-11T17:29:56.563Z,101219.63
2023-01-11T17:32:27.560Z,101217.88
2023-01-11T17:34:54.604Z,101211.75
2023-01-11T17:37:22.177Z,101205.59
2023-01-11T17:39:53.030Z,101211.72
2023-01-11T17:42:38.675Z,101207.31
2023-01-11T17:45:23.880Z,101208.19
2023-01-11T17:47:53.035Z,101205.47
2023-01-11T17:50:29.155Z,101208.94
2023-01-11T17:53:12.625Z,101195.75
2023-01-11T17:55:50.854Z,101187.88
2023-01-11T17:58:34.329Z,101180.97
2023-01-11T18:01:15.061Z,101171.50
2023-01-11T18:03:44.289Z,101188.97
2023-01-11T18:06:15.532Z,101183.72
2023-01-11T18:08:47.971Z,101174.94
2023-01-11T18:11:24.087Z,101170.50
2023-01-11T18:13:55.789Z,101173.13
2023-01-11T18:16:22.910Z,101176.50
2023-01-11T18:18:51.282Z,101177.34
2023-01-11T18:21:30.991Z,101172.13
2023-01-11T18:24:12.710Z,101181.66
2023-01-11T18:26:41.522Z,101165.09
2023-01-11T18:29:42.121Z,101174.78
2023-01-11T18:32:11.009Z,101156.59
2023-01-11T18:34:37.432Z,101166.25
2023-01-11T18:37:07.610Z,101153.25
2023-01-11T18:39:34.896Z,101152.44
2023-01-11T18:42:09.351Z,101151.63
2023-01-11T18:44:37.353Z,101158.66
2023-01-11T18:47:15.126Z,101133.47
2023-01-11T18:49:41.667Z,101147.47
2023-01-11T18:52:08.153Z,101153.72
2023-01-11T18:54:34.653Z,101144.06
2023-01-11T18:57:01.054Z,101142.22
2023-01-11T18:59:27.412Z,101140.53
2023-01-11T19:02:15.762Z,101138.97
2023-01-11T19:04:43.274Z,101135.56
2023-01-11T19:07:10.613Z,101128.63
2023-01-11T19:09:37.177Z,101112.00
2023-01-11T19:12:03.648Z,101135.50
2023-01-11T19:14:30.093Z,101122.47
2023-01-11T19:16:56.522Z,101123.38
2023-01-11T19:19:22.961Z,101106.91
2023-01-11T19:21:49.420Z,101110.38
2023-01-11T19:24:15.843Z,101092.94
2023-01-11T19:26:42.261Z,101090.41
2023-01-11T19:29:08.729Z,101079.91
2023-01-11T19:31:35.099Z,101076.38
2023-01-11T19:34:01.498Z,101068.69
2023-01-11T19:36:31.882Z,101063.50
2023-01-11T19:38:58.191Z,101065.28
2023-01-11T19:41:24.631Z,101057.41
2023-01-11T19:43:51.062Z,101073.22
2023-01-11T19:46:30.716Z,101075.91
2023-01-11T19:48:58.160Z,101068.34
2023-01-11T19:51:24.605Z,101079.72
2023-01-11T19:53:50.999Z,101057.97
2023-01-11T19:56:17.343Z,101062.56
2023-01-11T19:58:43.789Z,101070.59
2023-01-11T20:01:15.124Z,101076.81
2023-01-11T20:03:42.175Z,101069.88
2023-01-11T20:06:09.223Z,101068.41
2023-01-11T20:08:38.319Z,101091.03
2023-01-11T20:11:10.680Z,101059.75
2023-01-11T20:13:37.126Z,101051.13
2023-01-11T20:16:11.560Z,101052.91
2023-01-11T20:18:38.296Z,101050.34
2023-01-11T20:21:05.439Z,101042.50
2023-01-11T20:23:32.982Z,101061.75
2023-01-11T20:26:01.241Z,101049.50
2023-01-11T20:28:28.151Z,101052.13
2023-01-11T20:30:56.080Z,101050.28
2023-01-11T20:33:22.560Z,101056.34
2023-01-11T20:35:48.907Z,101062.38
2023-01-11T20:38:15.274Z,101064.09
2023-01-11T20:40:42.337Z,101077.94
2023-01-11T20:43:10.946Z,101068.41
2023-01-11T20:45:39.492Z,101073.66
2023-01-11T20:48:07.047Z,101071.16
2023-01-11T20:50:34.375Z,101071.94
2023-01-11T20:53:00.871Z,101069.31
2023-01-11T20:55:27.879Z,101068.41
2023-01-11T20:57:54.371Z,101055.25
2023-01-11T21:00:21.317Z,101057.84
2023-01-11T21:02:48.978Z,101055.16
2023-01-11T21:05:15.491Z,101057.84
2023-01-11T21:07:41.896Z,101070.88
2023-01-11T21:10:10.728Z,101066.53
2023-01-11T21:15:03.623Z,101072.69
2023-01-11T21:17:30.150Z,101078.72
2023-01-11T21:19:56.671Z,101071.72
2023-01-11T21:22:23.135Z,101071.72
2023-01-11T21:24:49.451Z,101063.81
2023-01-11T21:27:15.880Z,101069.03
2023-01-11T21:29:42.251Z,101069.97
2023-01-11T21:32:08.639Z,101058.69
2023-01-11T21:34:34.987Z,101053.47
2023-01-11T21:37:01.353Z,101056.00
2023-01-11T21:39:27.712Z,101041.16
2023-01-11T21:41:58.910Z,101036.75
2023-01-11T21:44:31.723Z,101062.22
2023-01-11T21:46:58.584Z,101069.97
2023-01-11T21:49:25.020Z,101051.63
2023-01-11T21:51:51.818Z,101056.88
2023-01-11T21:54:18.852Z,101062.09
2023-01-11T21:56:46.947Z,101058.56
2023-01-11T21:59:14.256Z,101042.00
2023-01-11T22:01:43.419Z,101037.63
2023-01-11T22:04:12.392Z,101032.38
2023-01-11T22:06:41.278Z,101027.13
2023-01-11T22:09:11.804Z,101026.97
2023-01-11T22:11:38.794Z,101028.69
2023-01-11T22:14:06.553Z,101030.38
2023-01-11T22:16:33.424Z,101022.53
2023-01-11T22:19:00.871Z,101032.09
2023-01-11T22:21:27.811Z,101033.84
2023-01-11T22:23:56.661Z,101033.75
2023-01-11T22:26:23.379Z,101032.75
2023-01-11T22:29:12.340Z,101042.31
2023-01-11T22:31:41.326Z,101033.63
2023-01-11T22:34:07.949Z,101033.63
2023-01-11T22:36:34.346Z,101033.56
2023-01-11T22:39:00.885Z,101028.31
2023-01-11T22:41:27.245Z,101035.34
2023-01-11T22:43:54.260Z,101036.16
2023-01-11T22:46:22.705Z,101040.56
2023-01-11T22:48:50.641Z,101044.94
2023-01-11T22:51:19.677Z,101039.78
2023-01-11T22:53:47.818Z,101037.16
2023-01-11T22:56:18.223Z,101051.19
2023-01-11T22:58:45.290Z,101057.22
2023-01-11T23:01:20.136Z,101037.09
2023-01-11T23:03:47.185Z,101058.91
2023-01-11T23:06:20.170Z,101059.81
2023-01-11T23:08:46.812Z,101059.75
2023-01-11T23:11:36.191Z,101060.66
2023-01-11T23:14:05.672Z,101064.97
2023-01-11T23:16:32.710Z,101049.19
2023-01-11T23:18:59.557Z,101045.72
2023-01-11T23:21:26.344Z,101057.00
2023-01-11T23:23:53.375Z,101055.28
2023-01-11T23:26:20.579Z,101056.09
2023-01-11T23:28:48.299Z,101063.03
2023-01-11T23:31:17.074Z,101066.47
2023-01-11T23:33:48.718Z,101065.56
2023-01-11T23:36:16.419Z,101061.19
2023-01-11T23:38:43.188Z,101057.72
2023-01-11T23:41:34.340Z,101054.16
2023-01-11T23:44:01.743Z,101055.88
2023-01-11T23:46:47.210Z,101056.72
2023-01-11T23:49:14.614Z,101068.91
2023-01-11T23:51:42.228Z,101054.88
2023-01-11T23:54:09.209Z,101058.41
2023-01-11T23:56:36.241Z,101047.84
2023-01-11T23:59:04.049Z,101040.00
